createdAt,value
2022-11-17T00:00:45.211Z,96060.07
2022-11-17T00:03:15.837Z,96063.38
2022-11-17T00:05:44.777Z,96062.47
2022-11-17T00:08:13.044Z,96061.73
2022-11-17T00:10:41.143Z,96057.22
2022-11-17T00:13:29.106Z,96055.77
2022-11-17T00:15:57.116Z,96059.01
2022-11-17T00:18:43.807Z,96057.60
2022-11-17T00:21:19.322Z,96056.70
2022-11-17T00:23:48.280Z,96053.30
2022-11-17T00:26:31.793Z,96047.31
2022-11-17T00:29:02.990Z,96046.20
2022-11-17T00:31:52.374Z,96042.48
2022-11-17T00:34:23.172Z,96040.66
2022-11-17T00:36:53.816Z,96043.20
2022-11-17T00:39:23.088Z,96044.02
2022-11-17T00:41:51.201Z,96038.83
2022-11-17T00:44:19.141Z,96035.41
2022-11-17T00:46:47.390Z,96030.16
2022-11-17T00:49:15.443Z,96023.20
2022-11-17T00:51:43.482Z,96021.77
2022-11-17T00:54:13.174Z,96021.71
2022-11-17T00:56:41.240Z,96018.88
2022-11-17T00:59:09.630Z,96015.61
2022-11-17T01:01:38.152Z,96010.58
2022-11-17T01:04:07.327Z,96006.33
2022-11-17T01:06:38.723Z,96000.55
2022-11-17T01:09:23.810Z,95997.88
2022-11-17T01:11:53.566Z,96000.33
2022-11-17T01:14:25.557Z,95996.37
2022-11-17T01:16:54.827Z,95988.02
2022-11-17T01:19:24.081Z,95978.60
2022-11-17T01:21:52.455Z,95973.25
2022-11-17T01:24:20.436Z,95969.67
2022-11-17T01:26:50.768Z,95968.02
2022-11-17T01:29:18.886Z,95967.83
2022-11-17T01:31:50.904Z,95965.38
2022-11-17T01:34:19.727Z,95962.29
2022-11-17T01:37:06.525Z,95958.33
2022-11-17T01:39:34.670Z,95954.23
2022-11-17T01:42:05.099Z,95952.52
2022-11-17T01:44:36.325Z,95943.16
2022-11-17T01:47:06.361Z,95939.69
2022-11-17T01:49:34.423Z,95941.08
2022-11-17T01:52:07.562Z,95939.69
2022-11-17T01:54:40.857Z,95934.55
2022-11-17T01:57:24.091Z,95921.54
2022-11-17T02:00:07.763Z,95923.90
2022-11-17T02:02:38.727Z,95928.30
2022-11-17T02:05:22.434Z,95920.95
2022-11-17T02:07:55.457Z,95913.29
2022-11-17T02:10:23.760Z,95912.66
2022-11-17T02:12:54.927Z,95913.98
2022-11-17T02:15:24.445Z,95909.53
2022-11-17T02:17:53.133Z,95907.17
2022-11-17T02:20:29.668Z,95904.42
2022-11-17T02:23:16.269Z,95901.73
2022-11-17T02:26:25.874Z,95898.93
2022-11-17T02:29:09.886Z,95900.45
2022-11-17T02:31:53.095Z,95898.32
2022-11-17T02:34:50.480Z,95893.45
2022-11-17T02:37:46.241Z,95894.11
2022-11-17T02:40:23.707Z,95895.78
2022-11-17T02:43:17.895Z,95894.62
2022-11-17T02:45:56.579Z,95887.64
2022-11-17T02:48:48.526Z,95884.30
2022-11-17T02:51:21.526Z,95883.61
2022-11-17T02:53:56.450Z,95878.70
2022-11-17T02:56:25.049Z,95876.72
2022-11-17T02:59:00.372Z,95878.10
2022-11-17T03:01:53.499Z,95876.29
2022-11-17T03:04:54.522Z,95873.23
2022-11-17T03:07:35.189Z,95868.23
2022-11-17T03:10:15.261Z,95865.48
2022-11-17T03:12:50.710Z,95867.64
2022-11-17T03:15:18.558Z,95863.69
2022-11-17T03:18:12.342Z,95857.79
2022-11-17T03:21:06.387Z,95858.76
2022-11-17T03:23:35.088Z,95854.21
2022-11-17T03:26:07.881Z,95849.80
2022-11-17T03:28:37.413Z,95846.02
2022-11-17T03:31:09.481Z,95846.66
2022-11-17T03:33:41.077Z,95844.99
2022-11-17T03:36:15.978Z,95842.98
2022-11-17T03:38:52.732Z,95837.52
2022-11-17T03:41:23.572Z,95834.82
2022-11-17T03:43:55.865Z,95831.73
2022-11-17T03:46:26.765Z,95831.27
2022-11-17T03:49:18.586Z,95831.89
2022-11-17T03:51:47.009Z,95830.04
2022-11-17T03:54:15.839Z,95828.48
2022-11-17T03:57:16.015Z,95823.44
2022-11-17T03:59:53.679Z,95820.43
2022-11-17T04:02:24.350Z,95817.95
2022-11-17T04:05:07.632Z,95819.52
2022-11-17T04:07:44.346Z,95817.61
2022-11-17T04:10:15.832Z,95818.39
2022-11-17T04:13:02.421Z,95818.53
2022-11-17T04:15:49.159Z,95814.72
2022-11-17T04:18:17.310Z,95812.36
2022-11-17T04:20:46.193Z,95816.63
2022-11-17T04:23:15.331Z,95815.45
2022-11-17T04:26:03.006Z,95813.70
2022-11-17T04:28:39.553Z,95816.75
2022-11-17T04:31:10.470Z,95815.77
2022-11-17T04:33:41.889Z,95815.88
2022-11-17T04:36:12.117Z,95815.66
2022-11-17T04:38:45.059Z,95811.41
2022-11-17T04:41:33.381Z,95815.16
2022-11-17T04:44:02.107Z,95809.54
2022-11-17T04:46:31.852Z,95814.23
2022-11-17T04:49:00.822Z,95816.28
2022-11-17T04:51:29.977Z,95819.32
2022-11-17T04:53:58.311Z,95815.38
2022-11-17T04:56:27.834Z,95809.97
2022-11-17T04:58:55.935Z,95804.52
2022-11-17T05:01:25.979Z,95811.33
2022-11-17T05:03:59.956Z,95815.70
2022-11-17T05:06:33.874Z,95814.48
2022-11-17T05:09:04.686Z,95816.06
2022-11-17T05:11:51.178Z,95815.18
2022-11-17T05:14:21.383Z,95807.18
2022-11-17T05:17:09.875Z,95809.55
2022-11-17T05:19:41.881Z,95809.40
2022-11-17T05:22:30.597Z,95807.94
2022-11-17T05:24:59.286Z,95809.13
2022-11-17T05:27:28.024Z,95807.71
2022-11-17T05:29:56.025Z,95807.55
2022-11-17T05:32:24.160Z,95805.88
2022-11-17T05:34:52.209Z,95805.25
2022-11-17T05:37:20.237Z,95808.72
2022-11-17T05:39:48.288Z,95807.13
2022-11-17T05:42:16.392Z,95809.08
2022-11-17T05:44:44.490Z,95810.81
2022-11-17T05:47:13.165Z,95812.02
2022-11-17T05:49:41.246Z,95810.64
2022-11-17T05:52:09.718Z,95810.23
2022-11-17T05:54:37.843Z,95811.92
2022-11-17T05:57:15.506Z,95818.02
2022-11-17T05:59:57.398Z,95820.13
2022-11-17T06:02:33.427Z,95819.64
2022-11-17T06:05:03.396Z,95817.73
2022-11-17T06:07:31.942Z,95821.38
2022-11-17T06:10:00.752Z,95815.41
2022-11-17T06:12:29.340Z,95811.43
2022-11-17T06:14:57.810Z,95810.48
2022-11-17T06:17:36.712Z,95811.85
2022-11-17T06:20:10.758Z,95817.41
2022-11-17T06:22:41.839Z,95820.52
2022-11-17T06:25:13.960Z,95827.33
2022-11-17T06:27:42.252Z,95833.98
2022-11-17T06:30:11.051Z,95827.54
2022-11-17T06:32:43.301Z,95825.27
2022-11-17T06:35:14.587Z,95823.46
2022-11-17T06:37:43.860Z,95821.52
2022-11-17T06:40:13.687Z,95807.23
2022-11-17T06:43:00.693Z,95820.32
2022-11-17T06:45:29.797Z,95812.55
2022-11-17T06:47:57.950Z,95811.77
2022-11-17T06:50:26.655Z,95821.44
2022-11-17T06:53:04.083Z,95826.16
2022-11-17T06:55:32.950Z,95826.73
2022-11-17T06:58:04.037Z,95828.91
2022-11-17T07:00:33.828Z,95833.05
2022-11-17T07:03:05.857Z,95838.66
2022-11-17T07:05:35.765Z,95843.13
2022-11-17T07:08:08.338Z,95839.59
2022-11-17T07:10:37.134Z,95836.23
2022-11-17T07:13:05.231Z,95836.10
2022-11-17T07:15:33.445Z,95831.92
2022-11-17T07:18:01.458Z,95832.86
2022-11-17T07:20:30.431Z,95838.96
2022-11-17T07:23:00.294Z,95837.79
2022-11-17T07:25:28.630Z,95837.97
2022-11-17T07:28:00.769Z,95835.79
2022-11-17T07:30:29.561Z,95835.55
2022-11-17T07:33:00.728Z,95835.77
2022-11-17T07:35:29.515Z,95835.98
2022-11-17T07:38:02.113Z,95839.33
2022-11-17T07:40:32.466Z,95842.00
2022-11-17T07:43:01.528Z,95845.44
2022-11-17T07:45:32.341Z,95845.41
2022-11-17T07:48:04.023Z,95843.67
2022-11-17T07:50:33.244Z,95844.81
2022-11-17T07:53:01.473Z,95852.23
2022-11-17T07:55:29.982Z,95853.53
2022-11-17T07:57:59.999Z,95853.13
2022-11-17T08:00:30.908Z,95859.22
2022-11-17T08:03:04.375Z,95860.17
2022-11-17T08:05:43.675Z,95857.23
2022-11-17T08:08:13.770Z,95857.05
2022-11-17T08:10:43.416Z,95853.17
2022-11-17T08:13:13.377Z,95852.27
2022-11-17T08:15:41.923Z,95858.00
2022-11-17T08:18:10.586Z,95857.02
2022-11-17T08:20:39.087Z,95853.19
2022-11-17T08:23:08.296Z,95853.42
2022-11-17T08:25:36.564Z,95855.23
2022-11-17T08:28:05.124Z,95860.34
2022-11-17T08:30:36.545Z,95859.34
2022-11-17T08:33:05.842Z,95861.69
2022-11-17T08:35:37.622Z,95863.91
2022-11-17T08:38:07.146Z,95860.04
2022-11-17T08:40:35.549Z,95861.89
2022-11-17T08:43:04.448Z,95864.41
2022-11-17T08:45:32.877Z,95863.61
2022-11-17T08:48:01.478Z,95870.37
2022-11-17T08:50:29.922Z,95870.43
2022-11-17T08:52:59.872Z,95868.16
2022-11-17T08:55:28.351Z,95865.73
2022-11-17T08:57:56.649Z,95860.30
2022-11-17T09:00:25.281Z,95861.10
2022-11-17T09:02:54.686Z,95863.30
2022-11-17T09:05:25.433Z,95858.89
2022-11-17T09:07:54.648Z,95857.20
2022-11-17T09:10:23.598Z,95861.42
2022-11-17T09:12:56.136Z,95866.96
2022-11-17T09:15:24.940Z,95868.45
2022-11-17T09:17:53.368Z,95866.35
2022-11-17T09:20:22.201Z,95869.41
2022-11-17T09:22:50.853Z,95871.22
2022-11-17T09:25:19.346Z,95873.14
2022-11-17T09:27:50.305Z,95875.65
2022-11-17T09:30:22.369Z,95880.92
2022-11-17T09:32:51.668Z,95881.12
2022-11-17T09:35:20.225Z,95880.77
2022-11-17T09:37:48.581Z,95881.48
2022-11-17T09:40:20.049Z,95884.05
2022-11-17T09:42:48.865Z,95886.48
2022-11-17T09:45:23.367Z,95887.45
2022-11-17T09:48:18.610Z,95877.23
2022-11-17T09:50:50.879Z,95873.78
2022-11-17T09:53:44.204Z,95874.00
2022-11-17T09:56:15.390Z,95870.50
2022-11-17T09:59:01.768Z,95867.52
2022-11-17T10:01:31.141Z,95863.82
2022-11-17T10:04:01.701Z,95859.61
2022-11-17T10:06:32.086Z,95866.30
2022-11-17T10:09:03.077Z,95868.94
2022-11-17T10:11:38.431Z,95877.27
2022-11-17T10:14:15.898Z,95881.02
2022-11-17T10:16:50.215Z,95882.00
2022-11-17T10:19:20.239Z,95885.59
2022-11-17T10:22:08.737Z,95884.86
2022-11-17T10:24:40.968Z,95890.90
2022-11-17T10:27:35.635Z,95893.61
2022-11-17T10:30:23.468Z,95896.55
2022-11-17T10:33:00.401Z,95899.30
2022-11-17T10:35:34.698Z,95902.62
2022-11-17T10:38:06.067Z,95901.21
2022-11-17T10:40:41.304Z,95908.23
2022-11-17T10:43:12.332Z,95914.52
2022-11-17T10:45:51.672Z,95921.27
2022-11-17T10:48:41.086Z,95922.84
2022-11-17T10:51:15.719Z,95933.13
2022-11-17T10:53:46.688Z,95939.28
2022-11-17T10:56:21.325Z,95943.11
2022-11-17T10:58:58.012Z,95950.54
2022-11-17T11:01:32.998Z,95948.20
2022-11-17T11:04:02.700Z,95950.98
2022-11-17T11:06:33.590Z,95956.31
2022-11-17T11:09:11.475Z,95958.44
2022-11-17T11:12:03.101Z,95958.25
2022-11-17T11:14:44.065Z,95963.88
2022-11-17T11:17:15.872Z,95967.40
2022-11-17T11:19:53.140Z,95964.61
2022-11-17T11:22:57.873Z,95967.17
2022-11-17T11:25:43.323Z,95971.89
2022-11-17T11:28:46.351Z,95966.60
2022-11-17T11:31:35.301Z,95971.62
2022-11-17T11:34:49.038Z,95971.23
2022-11-17T11:37:25.588Z,95973.49
2022-11-17T11:40:00.594Z,95972.21
2022-11-17T11:42:28.830Z,95971.14
2022-11-17T11:45:12.562Z,95975.16
2022-11-17T11:48:02.862Z,95981.95
2022-11-17T11:50:51.431Z,95979.48
2022-11-17T11:53:35.623Z,95983.70
2022-11-17T11:56:17.190Z,95977.72
2022-11-17T11:58:59.944Z,95980.36
2022-11-17T12:01:53.325Z,95982.83
2022-11-17T12:04:46.723Z,95989.13
2022-11-17T12:07:28.123Z,95987.05
2022-11-17T12:10:04.198Z,95987.51
2022-11-17T12:12:46.249Z,95987.19
2022-11-17T12:15:20.841Z,95988.36
2022-11-17T12:17:52.583Z,95992.27
2022-11-17T12:20:39.528Z,95991.67
2022-11-17T12:23:29.906Z,95994.45
2022-11-17T12:26:00.869Z,96002.66
2022-11-17T12:28:38.576Z,96006.31
2022-11-17T12:31:11.397Z,96011.38
2022-11-17T12:33:55.644Z,96016.89
2022-11-17T12:36:29.795Z,96023.11
2022-11-17T12:39:02.651Z,96022.81
2022-11-17T12:41:49.349Z,96020.11
2022-11-17T12:44:46.226Z,96020.86
2022-11-17T12:47:24.263Z,96017.64
2022-11-17T12:50:32.428Z,96026.71
2022-11-17T12:53:15.683Z,96033.73
2022-11-17T12:56:17.035Z,96039.99
2022-11-17T12:58:49.059Z,96034.92
2022-11-17T13:01:36.413Z,96037.95
2022-11-17T13:04:17.146Z,96043.39
2022-11-17T13:07:01.038Z,96039.73
2022-11-17T13:09:33.936Z,96050.13
2022-11-17T13:12:08.389Z,96060.61
2022-11-17T13:14:53.166Z,96063.96
2022-11-17T13:17:33.972Z,96068.57
2022-11-17T13:20:29.084Z,96069.21
2022-11-17T13:23:07.472Z,96072.17
2022-11-17T13:25:36.207Z,96077.94
2022-11-17T13:28:05.638Z,96082.95
2022-11-17T13:30:34.771Z,96084.10
2022-11-17T13:33:05.096Z,96081.94
2022-11-17T13:35:37.450Z,96084.49
2022-11-17T13:38:21.509Z,96088.77
2022-11-17T13:40:54.028Z,96083.27
2022-11-17T13:43:27.386Z,96089.29
2022-11-17T13:45:56.681Z,96093.36
2022-11-17T13:48:38.258Z,96098.83
2022-11-17T13:51:29.657Z,96103.90
2022-11-17T13:54:08.157Z,96104.70
2022-11-17T13:56:50.750Z,96114.05
2022-11-17T13:59:30.513Z,96120.38
2022-11-17T14:02:17.395Z,96123.63
2022-11-17T14:05:20.309Z,96127.63
2022-11-17T14:07:53.935Z,96122.36
2022-11-17T14:10:22.891Z,96131.02
2022-11-17T14:12:53.095Z,96135.75
2022-11-17T14:15:21.550Z,96144.66
2022-11-17T14:17:58.585Z,96148.39
2022-11-17T14:20:33.611Z,96147.80
2022-11-17T14:23:10.058Z,96147.02
2022-11-17T14:25:48.930Z,96143.55
2022-11-17T14:28:21.181Z,96140.73
2022-11-17T14:30:52.647Z,96142.57
2022-11-17T14:33:22.040Z,96142.91
2022-11-17T14:35:58.886Z,96147.24
2022-11-17T14:38:27.402Z,96150.45
2022-11-17T14:40:56.388Z,96152.68
2022-11-17T14:43:25.394Z,96153.95
2022-11-17T14:45:54.343Z,96156.42
2022-11-17T14:48:23.373Z,96157.62
2022-11-17T14:50:57.553Z,96160.63
2022-11-17T14:53:27.378Z,96162.91
2022-11-17T14:55:56.432Z,96172.52
2022-11-17T14:58:25.330Z,96172.05
2022-11-17T15:00:53.817Z,96172.81
2022-11-17T15:03:23.561Z,96172.78
2022-11-17T15:05:52.252Z,96173.66
2022-11-17T15:08:20.826Z,96179.34
2022-11-17T15:10:51.909Z,96184.25
2022-11-17T15:13:21.207Z,96188.67
2022-11-17T15:15:50.871Z,96195.24
2022-11-17T15:18:19.935Z,96194.11
2022-11-17T15:20:48.975Z,96196.38
2022-11-17T15:23:18.148Z,96199.03
2022-11-17T15:25:46.713Z,96198.95
2022-11-17T15:28:22.368Z,96200.35
2022-11-17T15:30:52.677Z,96199.85
2022-11-17T15:33:21.457Z,96196.95
2022-11-17T15:36:02.007Z,96198.38
2022-11-17T15:38:31.902Z,96200.54
2022-11-17T15:41:00.476Z,96207.92
2022-11-17T15:43:30.569Z,96208.52
2022-11-17T15:46:06.599Z,96211.59
2022-11-17T15:48:45.271Z,96209.20
2022-11-17T15:51:16.636Z,96201.11
2022-11-17T15:53:47.377Z,96208.88
2022-11-17T15:56:21.640Z,96213.97
2022-11-17T15:59:01.880Z,96218.95
2022-11-17T16:01:33.459Z,96221.93
2022-11-17T16:04:03.741Z,96223.73
2022-11-17T16:06:34.564Z,96221.23
2022-11-17T16:09:05.334Z,96226.45
2022-11-17T16:11:34.964Z,96222.23
2022-11-17T16:14:05.124Z,96229.47
2022-11-17T16:16:36.993Z,96231.21
2022-11-17T16:19:06.560Z,96237.20
2022-11-17T16:21:35.282Z,96243.11
2022-11-17T16:24:03.682Z,96250.04
2022-11-17T16:26:33.515Z,96251.35
2022-11-17T16:29:07.442Z,96254.36
2022-11-17T16:31:38.306Z,96259.94
2022-11-17T16:34:13.099Z,96250.27
2022-11-17T16:36:43.691Z,96251.45
2022-11-17T16:39:17.627Z,96263.19
2022-11-17T16:41:48.725Z,96264.26
2022-11-17T16:44:19.570Z,96267.79
2022-11-17T16:46:51.224Z,96270.85
2022-11-17T16:49:20.816Z,96268.64
2022-11-17T16:51:55.126Z,96271.95
2022-11-17T16:54:23.627Z,96270.25
2022-11-17T16:56:52.217Z,96272.16
2022-11-17T16:59:21.129Z,96279.42
2022-11-17T17:01:49.884Z,96286.86
2022-11-17T17:04:18.559Z,96286.55
2022-11-17T17:06:46.718Z,96282.66
2022-11-17T17:09:16.030Z,96287.11
2022-11-17T17:11:44.969Z,96288.75
2022-11-17T17:14:15.486Z,96291.05
2022-11-17T17:16:44.186Z,96285.96
2022-11-17T17:19:14.455Z,96283.36
2022-11-17T17:21:44.361Z,96277.80
2022-11-17T17:24:13.413Z,96280.29
2022-11-17T17:26:42.513Z,96283.00
2022-11-17T17:29:13.816Z,96282.26
2022-11-17T17:31:42.814Z,96282.92
2022-11-17T17:34:13.504Z,96282.08
2022-11-17T17:36:42.136Z,96279.56
2022-11-17T17:39:18.300Z,96283.04
2022-11-17T17:41:47.140Z,96277.25
2022-11-17T17:44:18.872Z,96272.25
2022-11-17T17:46:47.406Z,96268.48
2022-11-17T17:49:16.426Z,96265.36
2022-11-17T17:51:45.824Z,96266.62
2022-11-17T17:54:20.030Z,96265.44
2022-11-17T17:56:49.042Z,96271.82
2022-11-17T17:59:18.304Z,96271.10
2022-11-17T18:01:48.406Z,96267.38
2022-11-17T18:04:17.419Z,96272.02
2022-11-17T18:06:48.711Z,96273.04
2022-11-17T18:09:20.717Z,96273.05
2022-11-17T18:11:51.150Z,96273.75
2022-11-17T18:14:25.037Z,96277.84
2022-11-17T18:16:54.225Z,96279.06
2022-11-17T18:19:23.983Z,96278.07
2022-11-17T18:21:54.677Z,96282.30
2022-11-17T18:24:22.983Z,96280.34
2022-11-17T18:26:51.455Z,96288.08
2022-11-17T18:29:20.328Z,96300.73
2022-11-17T18:31:49.640Z,96306.07
2022-11-17T18:34:21.781Z,96309.91
2022-11-17T18:36:51.891Z,96313.65
2022-11-17T18:39:21.091Z,96321.71
2022-11-17T18:41:49.428Z,96319.02
2022-11-17T18:44:20.317Z,96323.98
2022-11-17T18:46:48.987Z,96322.87
2022-11-17T18:49:19.424Z,96323.82
2022-11-17T18:51:50.310Z,96319.31
2022-11-17T18:54:18.686Z,96317.64
2022-11-17T18:56:46.960Z,96320.34
2022-11-17T18:59:15.687Z,96324.94
2022-11-17T19:01:45.629Z,96325.89
2022-11-17T19:04:14.752Z,96330.95
2022-11-17T19:06:43.236Z,96332.13
2022-11-17T19:09:11.902Z,96323.77
2022-11-17T19:11:40.203Z,96321.03
2022-11-17T19:14:08.335Z,96320.10
2022-11-17T19:16:44.379Z,96320.08
2022-11-17T19:19:15.745Z,96322.98
2022-11-17T19:21:44.560Z,96325.34
2022-11-17T19:24:14.182Z,96332.81
2022-11-17T19:26:43.327Z,96334.81
2022-11-17T19:29:17.157Z,96332.34
2022-11-17T19:31:47.593Z,96338.97
2022-11-17T19:34:16.517Z,96347.10
2022-11-17T19:36:45.698Z,96350.60
2022-11-17T19:39:14.885Z,96351.80
2022-11-17T19:41:45.490Z,96345.20
2022-11-17T19:44:14.064Z,96344.58
2022-11-17T19:46:43.582Z,96339.45
2022-11-17T19:49:12.669Z,96338.49
2022-11-17T19:51:42.323Z,96329.75
2022-11-17T19:54:13.430Z,96321.91
2022-11-17T19:56:41.831Z,96310.75
2022-11-17T19:59:15.658Z,96312.98
2022-11-17T20:01:46.439Z,96317.13
2022-11-17T20:04:14.995Z,96316.21
2022-11-17T20:06:43.513Z,96318.45
2022-11-17T20:09:15.064Z,96314.42
2022-11-17T20:11:43.722Z,96312.91
2022-11-17T20:14:12.296Z,96325.39
2022-11-17T20:16:40.767Z,96332.39
2022-11-17T20:19:09.391Z,96333.52
2022-11-17T20:21:37.415Z,96331.29
2022-11-17T20:24:06.401Z,96323.95
2022-11-17T20:26:41.143Z,96318.86
2022-11-17T20:29:09.521Z,96323.27
2022-11-17T20:31:37.692Z,96313.68
2022-11-17T20:34:06.178Z,96311.02
2022-11-17T20:36:35.661Z,96310.52
2022-11-17T20:39:06.200Z,96305.45
2022-11-17T20:41:34.802Z,96302.16
2022-11-17T20:44:03.532Z,96306.52
2022-11-17T20:46:31.653Z,96302.82
2022-11-17T20:48:59.655Z,96307.61
2022-11-17T20:51:27.828Z,96320.98
2022-11-17T20:53:55.992Z,96330.79
2022-11-17T20:56:24.227Z,96339.28
2022-11-17T20:58:52.320Z,96343.54
2022-11-17T21:01:24.358Z,96332.52
2022-11-17T21:03:52.697Z,96317.79
2022-11-17T21:06:24.177Z,96314.37
2022-11-17T21:08:53.020Z,96323.89
2022-11-17T21:11:42.514Z,96327.48
2022-11-17T21:14:12.912Z,96327.58
2022-11-17T21:16:45.787Z,96325.34
2022-11-17T21:19:14.534Z,96327.27
2022-11-17T21:21:43.979Z,96330.39
2022-11-17T21:24:12.519Z,96331.79
2022-11-17T21:26:40.635Z,96330.19
2022-11-17T21:29:08.834Z,96323.79
2022-11-17T21:31:36.921Z,96324.84
2022-11-17T21:34:06.889Z,96328.34
2022-11-17T21:36:36.735Z,96327.81
2022-11-17T21:39:05.286Z,96324.28
2022-11-17T21:41:38.921Z,96320.41
2022-11-17T21:44:07.488Z,96320.58
2022-11-17T21:46:36.622Z,96314.66
2022-11-17T21:49:05.314Z,96311.19
2022-11-17T21:51:35.379Z,96314.48
2022-11-17T21:54:06.712Z,96318.15
2022-11-17T21:56:36.353Z,96324.94
2022-11-17T21:59:10.057Z,96326.71
2022-11-17T22:01:39.716Z,96333.83
2022-11-17T22:04:08.966Z,96336.70
2022-11-17T22:06:39.343Z,96335.27
2022-11-17T22:09:07.990Z,96344.58
2022-11-17T22:11:36.671Z,96350.61
2022-11-17T22:14:14.968Z,96345.23
2022-11-17T22:16:45.721Z,96340.55
2022-11-17T22:19:15.991Z,96339.23
2022-11-17T22:21:45.886Z,96340.08
2022-11-17T22:24:14.185Z,96345.97
2022-11-17T22:26:44.392Z,96348.73
2022-11-17T22:29:19.340Z,96346.55
2022-11-17T22:31:51.562Z,96344.20
2022-11-17T22:34:19.597Z,96341.68
2022-11-17T22:36:47.539Z,96342.27
2022-11-17T22:39:16.514Z,96346.10
2022-11-17T22:41:44.841Z,96339.09
2022-11-17T22:44:14.670Z,96335.56
2022-11-17T22:46:45.856Z,96331.40
2022-11-17T22:49:14.059Z,96327.08
2022-11-17T22:52:00.885Z,96326.06
2022-11-17T22:54:29.430Z,96323.48
2022-11-17T22:56:58.415Z,96316.89
2022-11-17T22:59:27.874Z,96311.87
2022-11-17T23:01:56.512Z,96312.30
2022-11-17T23:04:24.778Z,96312.73
2022-11-17T23:06:53.289Z,96312.66
2022-11-17T23:09:21.572Z,96313.61
2022-11-17T23:11:49.691Z,96312.05
2022-11-17T23:14:19.098Z,96310.13
2022-11-17T23:16:46.978Z,96306.19
2022-11-17T23:19:14.936Z,96306.56
2022-11-17T23:21:42.992Z,96310.09
2022-11-17T23:24:13.192Z,96313.36
2022-11-17T23:26:42.707Z,96313.41
2022-11-17T23:29:10.904Z,96320.48
2022-11-17T23:31:39.287Z,96325.13
2022-11-17T23:34:10.940Z,96318.10
2022-11-17T23:36:39.253Z,96312.25
2022-11-17T23:39:08.522Z,96309.17
2022-11-17T23:41:37.300Z,96315.45
2022-11-17T23:44:05.695Z,96317.39
2022-11-17T23:46:34.051Z,96316.31
2022-11-17T23:49:02.624Z,96314.70
2022-11-17T23:51:31.012Z,96307.77
2022-11-17T23:54:01.051Z,96301.30
2022-11-17T23:56:33.826Z,96305.63
2022-11-17T23:59:02.202Z,96311.89
